createdAt,value
2022-10-12T00:00:22.625Z,58.94
2022-10-12T00:01:15.865Z,59.03
2022-10-12T00:01:49.173Z,60.24
2022-10-12T00:02:22.790Z,60.93
2022-10-12T00:02:55.946Z,61.13
2022-10-12T00:03:29.226Z,61.83
2022-10-12T00:04:02.554Z,62.45
2022-10-12T00:04:35.671Z,62.94
2022-10-12T00:05:09.096Z,63.52
2022-10-12T00:05:42.367Z,63.60
2022-10-12T00:06:15.442Z,63.21
2022-10-12T00:06:48.737Z,62.75
2022-10-12T00:07:21.981Z,61.84
2022-10-12T00:07:55.151Z,60.64
2022-10-12T00:08:28.589Z,59.65
2022-10-12T00:09:01.920Z,59.17
2022-10-12T00:09:35.636Z,58.31
2022-10-12T00:10:09.326Z,57.80
2022-10-12T00:10:44.115Z,57.90
2022-10-12T00:11:23.345Z,58.05
2022-10-12T00:11:56.474Z,58.45
2022-10-12T00:12:29.661Z,58.94
2022-10-12T00:13:02.808Z,59.71
2022-10-12T00:13:36.261Z,60.26
2022-10-12T00:14:09.429Z,60.51
2022-10-12T00:14:42.625Z,60.75
2022-10-12T00:15:16.414Z,61.22
2022-10-12T00:15:49.934Z,61.55
2022-10-12T00:16:24.048Z,61.92
2022-10-12T00:16:57.162Z,62.25
2022-10-12T00:17:30.271Z,62.63
2022-10-12T00:18:03.439Z,63.22
2022-10-12T00:18:37.529Z,63.38
2022-10-12T00:19:13.477Z,62.76
2022-10-12T00:19:46.698Z,61.98
2022-10-12T00:20:19.843Z,60.86
2022-10-12T00:21:05.125Z,59.89
2022-10-12T00:21:39.810Z,59.48
2022-10-12T00:22:12.894Z,58.20
2022-10-12T00:22:46.179Z,57.93
2022-10-12T00:23:19.205Z,57.98
2022-10-12T00:23:52.664Z,58.28
2022-10-12T00:24:25.903Z,58.66
2022-10-12T00:24:59.058Z,59.20
2022-10-12T00:25:32.270Z,59.85
2022-10-12T00:26:08.961Z,60.31
2022-10-12T00:26:42.007Z,60.78
2022-10-12T00:27:15.510Z,61.49
2022-10-12T00:27:48.739Z,62.06
2022-10-12T00:28:21.966Z,62.54
2022-10-12T00:29:01.905Z,62.99
2022-10-12T00:29:36.186Z,63.42
2022-10-12T00:30:10.150Z,62.79
2022-10-12T00:30:43.202Z,61.86
2022-10-12T00:31:19.451Z,61.01
2022-10-12T00:31:53.286Z,60.24
2022-10-12T00:32:26.604Z,59.13
2022-10-12T00:32:59.895Z,58.33
2022-10-12T00:33:33.014Z,57.71
2022-10-12T00:34:06.007Z,57.51
2022-10-12T00:34:39.131Z,57.59
2022-10-12T00:35:12.328Z,57.96
2022-10-12T00:35:45.404Z,58.38
2022-10-12T00:36:24.679Z,58.84
2022-10-12T00:36:57.843Z,59.52
2022-10-12T00:37:31.032Z,60.56
2022-10-12T00:38:04.093Z,61.09
2022-10-12T00:38:37.153Z,61.71
2022-10-12T00:39:11.646Z,62.17
2022-10-12T00:39:44.944Z,62.71
2022-10-12T00:40:18.243Z,63.36
2022-10-12T00:40:51.349Z,63.47
2022-10-12T00:41:36.582Z,63.22
2022-10-12T00:42:13.752Z,62.94
2022-10-12T00:42:49.424Z,62.03
2022-10-12T00:43:36.200Z,61.31
2022-10-12T00:44:45.396Z,60.88
2022-10-12T00:45:18.615Z,61.00
2022-10-12T00:45:51.898Z,58.19
2022-10-12T00:46:25.004Z,57.28
2022-10-12T00:47:00.757Z,56.76
2022-10-12T00:47:35.427Z,56.41
2022-10-12T00:48:08.848Z,57.00
2022-10-12T00:48:43.273Z,57.54
2022-10-12T00:49:23.807Z,57.71
2022-10-12T00:50:16.346Z,58.40
2022-10-12T00:50:50.037Z,58.85
2022-10-12T00:51:24.134Z,60.08
2022-10-12T00:52:03.695Z,60.57
2022-10-12T00:52:49.056Z,60.92
2022-10-12T00:53:26.514Z,61.41
2022-10-12T00:54:04.837Z,62.08
2022-10-12T00:54:43.550Z,62.51
2022-10-12T00:55:21.096Z,63.26
2022-10-12T00:56:01.575Z,63.45
2022-10-12T00:56:40.073Z,63.20
2022-10-12T00:57:15.528Z,62.52
2022-10-12T00:57:51.630Z,61.62
2022-10-12T00:58:24.786Z,60.53
2022-10-12T00:59:03.026Z,59.91
2022-10-12T00:59:46.463Z,59.17
2022-10-12T01:00:21.037Z,58.03
2022-10-12T01:00:54.238Z,57.55
2022-10-12T01:01:28.591Z,57.73
2022-10-12T01:02:02.183Z,57.98
2022-10-12T01:02:38.694Z,58.47
2022-10-12T01:03:15.848Z,58.83
2022-10-12T01:03:49.969Z,59.34
2022-10-12T01:04:24.861Z,59.95
2022-10-12T01:04:58.401Z,60.45
2022-10-12T01:05:31.575Z,61.01
2022-10-12T01:06:07.721Z,61.38
2022-10-12T01:06:41.598Z,61.90
2022-10-12T01:07:14.936Z,62.34
2022-10-12T01:07:48.200Z,62.81
2022-10-12T01:08:22.212Z,63.25
2022-10-12T01:08:55.514Z,63.49
2022-10-12T01:09:29.906Z,63.17
2022-10-12T01:10:03.986Z,62.53
2022-10-12T01:10:37.351Z,62.19
2022-10-12T01:11:10.467Z,61.42
2022-10-12T01:11:43.587Z,60.67
2022-10-12T01:12:17.217Z,60.28
2022-10-12T01:12:50.912Z,60.01
2022-10-12T01:13:24.051Z,59.45
2022-10-12T01:13:58.446Z,59.34
2022-10-12T01:14:31.627Z,58.85
2022-10-12T01:15:05.756Z,58.59
2022-10-12T01:16:04.963Z,58.59
2022-10-12T01:16:48.191Z,58.29
2022-10-12T01:17:42.272Z,59.37
2022-10-12T01:18:32.280Z,59.96
2022-10-12T01:19:32.658Z,60.72
2022-10-12T01:20:08.970Z,60.94
2022-10-12T01:20:53.692Z,62.27
2022-10-12T01:21:27.275Z,62.87
2022-10-12T01:22:07.619Z,63.60
2022-10-12T01:23:05.786Z,63.61
2022-10-12T01:23:57.316Z,63.51
2022-10-12T01:24:39.290Z,63.00
2022-10-12T01:25:21.492Z,62.84
2022-10-12T01:26:27.808Z,62.38
2022-10-12T01:27:28.034Z,62.30
2022-10-12T01:28:29.769Z,62.32
2022-10-12T01:29:18.617Z,62.51
2022-10-12T01:30:11.903Z,62.49
2022-10-12T01:30:52.011Z,62.16
2022-10-12T01:31:32.907Z,61.62
2022-10-12T01:32:25.945Z,60.95
2022-10-12T01:33:04.970Z,60.70
2022-10-12T01:33:48.907Z,60.40
2022-10-12T01:34:37.445Z,60.14
2022-10-12T01:35:20.676Z,59.93
2022-10-12T01:36:05.838Z,59.67
2022-10-12T01:36:49.138Z,59.66
2022-10-12T01:37:43.534Z,59.77
2022-10-12T01:38:21.841Z,59.37
2022-10-12T01:39:10.041Z,59.28
2022-10-12T01:39:50.492Z,59.18
2022-10-12T01:40:37.680Z,59.42
2022-10-12T01:41:27.544Z,59.82
2022-10-12T01:42:09.823Z,60.09
2022-10-12T01:42:44.801Z,61.31
2022-10-12T01:43:18.782Z,62.12
2022-10-12T01:43:53.021Z,62.79
2022-10-12T01:44:27.333Z,63.47
2022-10-12T01:45:09.856Z,64.20
2022-10-12T01:45:42.731Z,64.77
2022-10-12T01:46:15.826Z,64.01
2022-10-12T01:46:50.325Z,63.06
2022-10-12T01:47:23.398Z,62.34
2022-10-12T01:47:56.808Z,61.20
2022-10-12T01:48:29.940Z,60.12
2022-10-12T01:49:03.240Z,59.16
2022-10-12T01:49:36.829Z,58.26
2022-10-12T01:50:13.309Z,57.47
2022-10-12T01:50:52.658Z,57.30
2022-10-12T01:51:47.055Z,57.36
2022-10-12T01:52:30.051Z,57.53
2022-10-12T01:53:19.599Z,58.34
2022-10-12T01:54:03.966Z,58.98
2022-10-12T01:54:56.009Z,60.00
2022-10-12T01:55:43.884Z,60.63
2022-10-12T01:56:27.306Z,61.32
2022-10-12T01:57:12.287Z,62.42
2022-10-12T01:58:00.442Z,63.01
2022-10-12T01:58:45.319Z,63.65
2022-10-12T01:59:34.966Z,63.74
2022-10-12T02:00:11.746Z,64.29
2022-10-12T02:01:07.861Z,63.50
2022-10-12T02:02:04.075Z,63.81
2022-10-12T02:03:08.125Z,62.73
2022-10-12T02:03:55.215Z,62.02
2022-10-12T02:04:37.885Z,60.05
2022-10-12T02:05:23.096Z,58.60
2022-10-12T02:06:17.166Z,57.10
2022-10-12T02:06:54.569Z,56.64
2022-10-12T02:07:40.337Z,57.04
2022-10-12T02:08:13.748Z,57.41
2022-10-12T02:08:57.161Z,58.29
2022-10-12T02:09:34.457Z,59.02
2022-10-12T02:10:16.218Z,59.81
2022-10-12T02:10:59.403Z,59.98
2022-10-12T02:11:36.070Z,60.51
2022-10-12T02:12:15.954Z,61.29
2022-10-12T02:12:50.468Z,61.73
2022-10-12T02:13:27.953Z,62.31
2022-10-12T02:14:12.936Z,62.73
2022-10-12T02:14:54.331Z,63.55
2022-10-12T02:15:28.998Z,63.69
2022-10-12T02:16:07.605Z,62.91
2022-10-12T02:16:48.712Z,62.27
2022-10-12T02:17:23.448Z,61.45
2022-10-12T02:17:58.126Z,60.16
2022-10-12T02:18:33.671Z,59.14
2022-10-12T02:19:11.426Z,58.09
2022-10-12T02:19:53.127Z,57.47
2022-10-12T02:20:28.092Z,57.25
2022-10-12T02:21:04.063Z,57.58
2022-10-12T02:21:38.721Z,57.87
2022-10-12T02:22:13.653Z,58.41
2022-10-12T02:22:50.250Z,59.06
2022-10-12T02:23:25.190Z,59.49
2022-10-12T02:24:01.676Z,60.15
2022-10-12T02:24:37.669Z,60.68
2022-10-12T02:25:14.511Z,61.26
2022-10-12T02:25:49.493Z,61.62
2022-10-12T02:26:23.645Z,61.98
2022-10-12T02:26:57.372Z,62.55
2022-10-12T02:27:35.171Z,63.16
2022-10-12T02:28:15.662Z,63.46
2022-10-12T02:28:51.201Z,63.32
2022-10-12T02:29:47.375Z,62.42
2022-10-12T02:30:21.301Z,62.41
2022-10-12T02:31:02.998Z,60.45
2022-10-12T02:31:54.836Z,59.80
2022-10-12T02:32:40.546Z,58.79
2022-10-12T02:33:24.042Z,57.46
2022-10-12T02:34:19.785Z,57.02
2022-10-12T02:35:02.991Z,57.21
2022-10-12T02:35:53.045Z,57.88
2022-10-12T02:36:48.535Z,58.51
2022-10-12T02:37:40.899Z,58.92
2022-10-12T02:38:28.329Z,59.41
2022-10-12T02:39:20.606Z,60.18
2022-10-12T02:40:13.101Z,60.74
2022-10-12T02:41:09.120Z,61.35
2022-10-12T02:41:48.127Z,62.41
2022-10-12T02:42:27.789Z,63.53
2022-10-12T02:43:13.409Z,63.52
2022-10-12T02:43:56.666Z,63.37
2022-10-12T02:44:34.420Z,62.27
2022-10-12T02:45:10.607Z,60.83
2022-10-12T02:45:47.654Z,59.78
2022-10-12T02:46:24.799Z,58.66
2022-10-12T02:47:00.852Z,57.10
2022-10-12T02:47:37.090Z,56.42
2022-10-12T02:48:15.369Z,56.27
2022-10-12T02:48:50.630Z,56.52
2022-10-12T02:49:27.211Z,56.81
2022-10-12T02:50:01.291Z,57.23
2022-10-12T02:50:35.178Z,58.04
2022-10-12T02:51:10.263Z,58.56
2022-10-12T02:51:44.733Z,59.00
2022-10-12T02:52:18.070Z,59.51
2022-10-12T02:52:53.158Z,60.03
2022-10-12T02:53:28.959Z,60.55
2022-10-12T02:54:03.384Z,61.14
2022-10-12T02:54:36.871Z,61.71
2022-10-12T02:55:11.647Z,62.32
2022-10-12T02:55:53.795Z,62.72
2022-10-12T02:56:27.077Z,63.55
2022-10-12T02:57:00.214Z,63.35
2022-10-12T02:57:33.495Z,63.02
2022-10-12T02:58:06.595Z,62.23
2022-10-12T02:58:42.319Z,61.25
2022-10-12T02:59:17.761Z,60.41
2022-10-12T02:59:50.976Z,59.40
2022-10-12T03:00:24.025Z,58.30
2022-10-12T03:00:57.214Z,57.63
2022-10-12T03:01:30.438Z,57.09
2022-10-12T03:02:03.565Z,57.01
2022-10-12T03:02:36.803Z,57.26
2022-10-12T03:03:10.056Z,57.80
2022-10-12T03:03:44.285Z,58.39
2022-10-12T03:04:17.474Z,59.00
2022-10-12T03:04:50.704Z,59.39
2022-10-12T03:05:23.667Z,59.85
2022-10-12T03:05:57.119Z,60.34
2022-10-12T03:06:30.126Z,60.77
2022-10-12T03:07:03.732Z,61.39
2022-10-12T03:07:37.125Z,61.67
2022-10-12T03:08:10.595Z,62.09
2022-10-12T03:08:43.656Z,62.36
2022-10-12T03:09:16.687Z,62.69
2022-10-12T03:09:49.656Z,63.26
2022-10-12T03:10:22.741Z,63.62
2022-10-12T03:11:00.703Z,63.34
2022-10-12T03:11:33.781Z,62.97
2022-10-12T03:12:06.734Z,62.02
2022-10-12T03:12:39.799Z,61.23
2022-10-12T03:13:13.211Z,60.11
2022-10-12T03:13:46.467Z,59.19
2022-10-12T03:14:21.440Z,58.32
2022-10-12T03:14:54.530Z,57.29
2022-10-12T03:15:27.757Z,57.19
2022-10-12T03:16:05.480Z,57.42
2022-10-12T03:16:38.773Z,57.71
2022-10-12T03:17:11.975Z,58.27
2022-10-12T03:17:45.229Z,58.83
2022-10-12T03:18:19.264Z,59.54
2022-10-12T03:18:52.494Z,59.80
2022-10-12T03:19:25.483Z,60.31
2022-10-12T03:19:58.486Z,60.86
2022-10-12T03:20:31.693Z,61.32
2022-10-12T03:21:05.327Z,61.86
2022-10-12T03:21:38.426Z,62.34
2022-10-12T03:22:11.531Z,62.92
2022-10-12T03:22:44.755Z,63.69
2022-10-12T03:23:17.772Z,63.87
2022-10-12T03:23:51.022Z,63.59
2022-10-12T03:24:24.475Z,62.88
2022-10-12T03:25:00.343Z,61.98
2022-10-12T03:25:33.809Z,61.53
2022-10-12T03:26:07.223Z,60.62
2022-10-12T03:26:40.549Z,59.80
2022-10-12T03:27:13.752Z,58.96
2022-10-12T03:27:46.962Z,58.02
2022-10-12T03:28:20.599Z,57.40
2022-10-12T03:28:53.890Z,57.26
2022-10-12T03:29:27.159Z,57.49
2022-10-12T03:30:00.543Z,57.84
2022-10-12T03:30:33.831Z,58.39
2022-10-12T03:31:06.919Z,58.90
2022-10-12T03:31:40.045Z,59.42
2022-10-12T03:32:13.118Z,60.02
2022-10-12T03:32:46.539Z,60.60
2022-10-12T03:33:19.806Z,61.19
2022-10-12T03:33:53.093Z,61.65
2022-10-12T03:34:26.206Z,61.80
2022-10-12T03:34:59.325Z,62.16
2022-10-12T03:35:32.461Z,62.45
2022-10-12T03:36:06.191Z,63.27
2022-10-12T03:36:39.283Z,63.38
2022-10-12T03:37:12.374Z,62.81
2022-10-12T03:37:45.384Z,62.41
2022-10-12T03:38:19.691Z,61.58
2022-10-12T03:38:53.079Z,60.57
2022-10-12T03:39:26.113Z,59.51
2022-10-12T03:39:59.241Z,58.78
2022-10-12T03:40:32.703Z,57.67
2022-10-12T03:41:06.936Z,56.97
2022-10-12T03:41:40.334Z,56.79
2022-10-12T03:42:14.221Z,57.05
2022-10-12T03:42:47.505Z,57.48
2022-10-12T03:43:20.623Z,57.96
2022-10-12T03:43:53.920Z,58.59
2022-10-12T03:44:27.267Z,58.99
2022-10-12T03:45:00.511Z,59.41
2022-10-12T03:45:34.115Z,60.16
2022-10-12T03:46:07.167Z,60.69
2022-10-12T03:46:40.415Z,60.96
2022-10-12T03:47:13.714Z,61.52
2022-10-12T03:47:48.247Z,61.87
2022-10-12T03:48:21.554Z,62.37
2022-10-12T03:48:54.705Z,62.78
2022-10-12T03:49:27.889Z,63.23
2022-10-12T03:50:01.112Z,63.44
2022-10-12T03:50:35.554Z,63.20
2022-10-12T03:51:08.881Z,62.95
2022-10-12T03:51:42.269Z,62.34
2022-10-12T03:52:15.845Z,61.45
2022-10-12T03:52:49.088Z,60.53
2022-10-12T03:53:22.382Z,59.42
2022-10-12T03:53:55.516Z,58.29
2022-10-12T03:54:28.596Z,56.89
2022-10-12T03:55:01.926Z,56.04
2022-10-12T03:55:35.249Z,55.82
2022-10-12T03:56:08.282Z,55.96
2022-10-12T03:56:41.373Z,56.30
2022-10-12T03:57:14.547Z,56.88
2022-10-12T03:57:47.675Z,57.40
2022-10-12T03:58:20.981Z,57.84
2022-10-12T03:58:54.084Z,58.35
2022-10-12T03:59:27.249Z,59.02
2022-10-12T04:00:00.350Z,59.55
2022-10-12T04:00:33.634Z,60.07
2022-10-12T04:01:06.898Z,60.53
2022-10-12T04:01:39.985Z,61.04
2022-10-12T04:02:16.714Z,61.36
2022-10-12T04:02:50.297Z,61.55
2022-10-12T04:03:23.471Z,62.21
2022-10-12T04:03:56.601Z,62.58
2022-10-12T04:04:29.557Z,63.25
2022-10-12T04:05:03.584Z,63.40
2022-10-12T04:05:36.825Z,63.21
2022-10-12T04:06:10.041Z,61.94
2022-10-12T04:06:43.261Z,61.08
2022-10-12T04:07:16.513Z,60.44
2022-10-12T04:07:50.064Z,59.94
2022-10-12T04:08:24.076Z,59.54
2022-10-12T04:08:57.318Z,59.25
2022-10-12T04:09:30.430Z,58.95
2022-10-12T04:10:04.392Z,58.76
2022-10-12T04:10:37.553Z,58.92
2022-10-12T04:11:10.829Z,59.31
2022-10-12T04:11:44.006Z,59.57
2022-10-12T04:12:17.220Z,60.03
2022-10-12T04:12:50.330Z,60.69
2022-10-12T04:13:25.054Z,61.20
2022-10-12T04:13:58.290Z,61.57
2022-10-12T04:14:31.339Z,61.95
2022-10-12T04:15:05.247Z,62.40
2022-10-12T04:15:38.233Z,62.96
2022-10-12T04:16:11.921Z,63.59
2022-10-12T04:16:45.002Z,63.74
2022-10-12T04:17:19.482Z,63.40
2022-10-12T04:17:53.370Z,62.68
2022-10-12T04:18:26.476Z,61.84
2022-10-12T04:18:59.701Z,60.82
2022-10-12T04:19:32.915Z,59.90
2022-10-12T04:20:07.242Z,59.34
2022-10-12T04:20:40.466Z,58.81
2022-10-12T04:21:16.204Z,58.38
2022-10-12T04:21:49.380Z,58.28
2022-10-12T04:22:24.199Z,58.30
2022-10-12T04:22:57.240Z,58.62
2022-10-12T04:23:30.341Z,59.05
2022-10-12T04:24:03.674Z,59.42
2022-10-12T04:24:36.818Z,59.94
2022-10-12T04:25:12.091Z,60.21
2022-10-12T04:25:45.324Z,60.47
2022-10-12T04:26:18.588Z,60.92
2022-10-12T04:26:51.757Z,61.44
2022-10-12T04:27:24.856Z,61.70
2022-10-12T04:27:57.881Z,62.15
2022-10-12T04:28:31.098Z,62.40
2022-10-12T04:29:05.236Z,63.01
2022-10-12T04:29:38.648Z,63.15
2022-10-12T04:30:12.667Z,63.17
2022-10-12T04:30:46.447Z,63.07
2022-10-12T04:31:19.433Z,62.72
2022-10-12T04:31:52.533Z,61.99
2022-10-12T04:32:25.679Z,61.40
2022-10-12T04:32:58.766Z,60.85
2022-10-12T04:33:32.360Z,60.04
2022-10-12T04:34:05.437Z,59.18
2022-10-12T04:34:38.661Z,58.47
2022-10-12T04:35:12.097Z,57.82
2022-10-12T04:35:45.319Z,57.57
2022-10-12T04:36:18.330Z,57.95
2022-10-12T04:36:51.401Z,58.33
2022-10-12T04:37:26.465Z,58.79
2022-10-12T04:37:59.572Z,59.09
2022-10-12T04:38:32.734Z,59.85
2022-10-12T04:39:06.012Z,60.18
2022-10-12T04:39:39.097Z,60.68
2022-10-12T04:40:12.449Z,61.21
2022-10-12T04:40:49.825Z,61.46
2022-10-12T04:41:22.990Z,61.64
2022-10-12T04:41:56.487Z,62.25
2022-10-12T04:42:29.722Z,62.61
2022-10-12T04:43:02.872Z,63.29
2022-10-12T04:43:36.191Z,63.64
2022-10-12T04:44:09.560Z,63.31
2022-10-12T04:44:42.689Z,62.53
2022-10-12T04:45:15.944Z,61.90
2022-10-12T04:45:58.934Z,61.10
2022-10-12T04:46:32.589Z,60.76
2022-10-12T04:47:05.704Z,59.56
2022-10-12T04:47:39.411Z,58.79
2022-10-12T04:48:12.835Z,58.16
2022-10-12T04:48:45.983Z,57.73
2022-10-12T04:49:19.297Z,57.93
2022-10-12T04:49:52.472Z,58.24
2022-10-12T04:50:29.896Z,58.31
2022-10-12T04:51:03.569Z,58.52
2022-10-12T04:51:36.700Z,59.37
2022-10-12T04:52:10.077Z,59.71
2022-10-12T04:52:43.213Z,60.02
2022-10-12T04:53:16.289Z,60.44
2022-10-12T04:53:49.416Z,61.08
2022-10-12T04:54:22.445Z,61.56
2022-10-12T04:54:55.560Z,62.04
2022-10-12T04:55:29.416Z,62.46
2022-10-12T04:56:04.565Z,62.94
2022-10-12T04:56:38.319Z,63.65
2022-10-12T04:57:11.627Z,63.80
2022-10-12T04:57:45.018Z,63.38
2022-10-12T04:58:18.273Z,63.13
2022-10-12T04:58:51.387Z,62.98
2022-10-12T04:59:24.580Z,62.48
2022-10-12T04:59:57.684Z,61.86
2022-10-12T05:00:30.765Z,61.23
2022-10-12T05:01:03.922Z,60.70
2022-10-12T05:01:37.253Z,60.17
2022-10-12T05:02:10.356Z,59.64
2022-10-12T05:02:43.508Z,58.97
2022-10-12T05:03:16.822Z,58.10
2022-10-12T05:03:50.061Z,57.55
2022-10-12T05:04:23.230Z,57.39
2022-10-12T05:04:56.470Z,57.50
2022-10-12T05:05:29.721Z,57.77
2022-10-12T05:06:02.863Z,58.30
2022-10-12T05:06:35.992Z,58.94
2022-10-12T05:07:09.082Z,59.73
2022-10-12T05:07:42.192Z,60.42
2022-10-12T05:08:15.526Z,61.07
2022-10-12T05:08:48.545Z,61.58
2022-10-12T05:09:21.936Z,62.16
2022-10-12T05:09:55.089Z,62.82
2022-10-12T05:10:28.498Z,63.64
2022-10-12T05:11:02.046Z,64.08
2022-10-12T05:11:35.348Z,63.90
2022-10-12T05:12:08.591Z,63.64
2022-10-12T05:12:42.887Z,62.64
2022-10-12T05:13:16.250Z,61.75
2022-10-12T05:13:49.523Z,60.86
2022-10-12T05:14:22.711Z,59.89
2022-10-12T05:14:55.908Z,58.78
2022-10-12T05:15:29.032Z,57.93
2022-10-12T05:16:02.119Z,56.88
2022-10-12T05:16:35.415Z,56.33
2022-10-12T05:17:08.517Z,56.38
2022-10-12T05:17:41.633Z,56.65
2022-10-12T05:18:14.764Z,57.12
2022-10-12T05:18:48.117Z,57.79
2022-10-12T05:19:21.203Z,58.35
2022-10-12T05:19:54.324Z,59.05
2022-10-12T05:20:27.496Z,59.65
2022-10-12T05:21:00.589Z,60.15
2022-10-12T05:21:34.063Z,60.81
2022-10-12T05:22:07.288Z,61.20
2022-10-12T05:22:40.765Z,61.87
2022-10-12T05:23:14.338Z,62.32
2022-10-12T05:23:53.627Z,62.65
2022-10-12T05:24:26.613Z,63.27
2022-10-12T05:24:59.883Z,63.36
2022-10-12T05:25:35.460Z,63.22
2022-10-12T05:26:08.702Z,62.88
2022-10-12T05:26:41.844Z,62.13
2022-10-12T05:27:15.246Z,61.52
2022-10-12T05:27:48.449Z,60.94
2022-10-12T05:28:21.980Z,60.26
2022-10-12T05:28:55.155Z,59.54
2022-10-12T05:29:28.487Z,58.84
2022-10-12T05:30:01.698Z,58.12
2022-10-12T05:30:35.338Z,57.64
2022-10-12T05:31:08.989Z,57.65
2022-10-12T05:31:42.134Z,57.94
2022-10-12T05:32:15.734Z,58.09
2022-10-12T05:32:49.543Z,58.73
2022-10-12T05:33:22.669Z,59.30
2022-10-12T05:33:56.266Z,59.88
2022-10-12T05:34:29.561Z,60.57
2022-10-12T05:35:03.290Z,61.15
2022-10-12T05:35:36.627Z,61.64
2022-10-12T05:36:09.769Z,62.21
2022-10-12T05:36:43.134Z,62.66
2022-10-12T05:37:16.651Z,63.09
2022-10-12T05:37:50.038Z,63.41
2022-10-12T05:38:23.066Z,63.54
2022-10-12T05:38:56.359Z,63.29
2022-10-12T05:39:29.449Z,62.54
2022-10-12T05:40:03.288Z,62.05
2022-10-12T05:40:36.528Z,61.27
2022-10-12T05:41:09.641Z,60.70
2022-10-12T05:41:42.840Z,60.08
2022-10-12T05:42:16.661Z,59.52
2022-10-12T05:42:49.947Z,59.08
2022-10-12T05:43:23.174Z,58.37
2022-10-12T05:43:56.379Z,58.21
2022-10-12T05:44:29.623Z,58.27
2022-10-12T05:45:04.064Z,58.61
2022-10-12T05:45:37.279Z,59.10
2022-10-12T05:46:14.283Z,59.58
2022-10-12T05:46:47.882Z,60.19
2022-10-12T05:47:20.979Z,60.97
2022-10-12T05:47:54.050Z,61.51
2022-10-12T05:48:27.419Z,62.20
2022-10-12T05:49:00.776Z,62.76
2022-10-12T05:49:34.931Z,63.32
2022-10-12T05:50:08.688Z,63.72
2022-10-12T05:50:41.961Z,63.66
2022-10-12T05:51:15.355Z,63.43
2022-10-12T05:51:48.705Z,63.13
2022-10-12T05:52:22.355Z,62.52
2022-10-12T05:52:55.489Z,61.69
2022-10-12T05:53:28.647Z,60.92
2022-10-12T05:54:01.768Z,60.25
2022-10-12T05:54:35.394Z,59.46
2022-10-12T05:55:08.883Z,58.86
2022-10-12T05:56:01.313Z,58.42
2022-10-12T05:56:34.536Z,58.46
2022-10-12T05:57:07.585Z,58.92
2022-10-12T05:57:41.082Z,59.51
2022-10-12T05:58:14.158Z,60.18
2022-10-12T05:58:47.540Z,60.68
2022-10-12T05:59:20.646Z,61.32
2022-10-12T05:59:53.844Z,61.90
2022-10-12T06:00:27.206Z,62.59
2022-10-12T06:01:12.779Z,63.33
2022-10-12T06:01:46.096Z,64.40
2022-10-12T06:02:19.829Z,64.15
2022-10-12T06:02:53.110Z,64.02
2022-10-12T06:03:26.725Z,63.45
2022-10-12T06:04:00.525Z,62.70
2022-10-12T06:04:33.525Z,62.03
2022-10-12T06:05:07.075Z,61.47
2022-10-12T06:05:40.293Z,60.95
2022-10-12T06:06:13.466Z,60.41
2022-10-12T06:06:46.791Z,60.16
2022-10-12T06:07:20.091Z,59.95
2022-10-12T06:07:53.063Z,59.66
2022-10-12T06:08:26.668Z,59.27
2022-10-12T06:08:59.835Z,58.95
2022-10-12T06:09:33.375Z,59.01
2022-10-12T06:10:06.967Z,59.31
2022-10-12T06:10:51.813Z,59.76
2022-10-12T06:11:25.020Z,60.17
2022-10-12T06:11:58.224Z,61.05
2022-10-12T06:12:31.381Z,61.76
2022-10-12T06:13:04.580Z,62.46
2022-10-12T06:13:37.811Z,63.09
2022-10-12T06:14:10.858Z,63.75
2022-10-12T06:14:44.177Z,64.15
2022-10-12T06:15:17.388Z,64.09
2022-10-12T06:15:50.557Z,63.94
2022-10-12T06:16:23.639Z,63.78
2022-10-12T06:16:57.081Z,63.49
2022-10-12T06:17:30.277Z,63.02
2022-10-12T06:18:03.458Z,62.77
2022-10-12T06:18:36.623Z,62.40
2022-10-12T06:19:12.128Z,62.10
2022-10-12T06:19:45.381Z,61.84
2022-10-12T06:20:18.382Z,61.56
2022-10-12T06:21:20.951Z,61.35
2022-10-12T06:21:47.216Z,61.68
2022-10-12T06:22:20.359Z,60.83
2022-10-12T06:22:53.584Z,60.58
2022-10-12T06:23:27.224Z,60.43
2022-10-12T06:24:00.752Z,60.29
2022-10-12T06:24:33.951Z,60.28
2022-10-12T06:25:07.865Z,60.17
2022-10-12T06:25:41.597Z,60.51
2022-10-12T06:26:15.057Z,60.65
2022-10-12T06:26:48.252Z,60.88
2022-10-12T06:27:21.441Z,61.18
2022-10-12T06:27:54.473Z,61.40
2022-10-12T06:28:27.678Z,61.48
2022-10-12T06:29:01.158Z,61.34
2022-10-12T06:29:36.171Z,61.45
2022-10-12T06:30:09.817Z,61.48
2022-10-12T06:30:43.558Z,61.63
2022-10-12T06:31:16.802Z,61.77
2022-10-12T06:31:51.892Z,61.89
2022-10-12T06:32:25.280Z,61.68
2022-10-12T06:32:58.474Z,61.33
2022-10-12T06:33:31.604Z,61.41
2022-10-12T06:34:05.016Z,61.45
2022-10-12T06:34:38.540Z,61.28
2022-10-12T06:35:11.883Z,61.12
2022-10-12T06:35:45.114Z,60.98
2022-10-12T06:36:18.659Z,60.96
2022-10-12T06:36:52.573Z,60.91
2022-10-12T06:37:48.526Z,60.79
2022-10-12T06:38:19.231Z,60.94
2022-10-12T06:38:52.796Z,61.38
2022-10-12T06:39:25.953Z,61.56
2022-10-12T06:39:59.293Z,61.68
2022-10-12T06:40:32.568Z,61.55
2022-10-12T06:41:05.727Z,61.51
2022-10-12T06:41:39.398Z,61.48
2022-10-12T06:42:12.559Z,61.29
2022-10-12T06:42:45.826Z,61.39
2022-10-12T06:43:19.162Z,61.36
2022-10-12T06:43:52.585Z,61.28
2022-10-12T06:44:25.694Z,61.34
2022-10-12T06:44:58.712Z,61.53
2022-10-12T06:45:32.315Z,61.61
2022-10-12T06:46:05.675Z,61.66
2022-10-12T06:46:38.925Z,61.70
2022-10-12T06:47:12.211Z,61.69
2022-10-12T06:47:45.499Z,61.83
2022-10-12T06:48:19.125Z,61.92
2022-10-12T06:48:52.277Z,61.75
2022-10-12T06:49:26.230Z,61.66
2022-10-12T06:49:59.414Z,61.38
2022-10-12T06:50:32.644Z,61.05
2022-10-12T06:51:06.042Z,60.85
2022-10-12T06:51:39.393Z,61.03
2022-10-12T06:52:12.729Z,60.46
2022-10-12T06:52:47.472Z,60.47
2022-10-12T06:53:20.739Z,60.08
2022-10-12T06:53:56.969Z,59.77
2022-10-12T06:54:30.157Z,59.57
2022-10-12T06:55:04.154Z,59.23
2022-10-12T06:55:40.115Z,58.98
2022-10-12T06:56:13.471Z,59.07
2022-10-12T06:56:46.487Z,59.54
2022-10-12T06:57:19.565Z,60.08
2022-10-12T06:57:52.872Z,60.64
2022-10-12T06:58:26.121Z,61.28
2022-10-12T06:58:59.409Z,61.98
2022-10-12T06:59:32.518Z,62.50
2022-10-12T07:00:08.195Z,62.97
2022-10-12T07:00:41.698Z,63.59
2022-10-12T07:01:14.836Z,63.98
2022-10-12T07:01:48.121Z,64.03
2022-10-12T07:02:21.307Z,63.83
2022-10-12T07:02:54.327Z,63.73
2022-10-12T07:03:27.393Z,63.72
2022-10-12T07:04:01.073Z,63.77
2022-10-12T07:04:34.282Z,63.70
2022-10-12T07:05:08.303Z,63.61
2022-10-12T07:05:41.549Z,63.30
2022-10-12T07:06:15.250Z,63.00
2022-10-12T07:06:48.581Z,62.73
2022-10-12T07:07:21.668Z,62.47
2022-10-12T07:07:54.932Z,62.38
2022-10-12T07:08:28.094Z,62.34
2022-10-12T07:09:02.211Z,62.48
2022-10-12T07:09:35.645Z,62.49
2022-10-12T07:10:09.385Z,62.38
2022-10-12T07:10:42.528Z,62.26
2022-10-12T07:11:16.195Z,62.20
2022-10-12T07:11:49.405Z,62.33
2022-10-12T07:12:22.395Z,62.29
2022-10-12T07:12:55.367Z,62.25
2022-10-12T07:13:29.209Z,62.24
2022-10-12T07:14:02.349Z,62.20
2022-10-12T07:14:35.608Z,62.22
2022-10-12T07:15:09.146Z,62.33
2022-10-12T07:15:42.315Z,62.59
2022-10-12T07:16:15.871Z,62.81
2022-10-12T07:16:52.943Z,62.87
2022-10-12T07:17:28.341Z,62.94
2022-10-12T07:18:01.471Z,63.27
2022-10-12T07:18:34.893Z,63.60
2022-10-12T07:19:08.208Z,63.64
2022-10-12T07:19:41.221Z,63.66
2022-10-12T07:20:14.275Z,63.75
2022-10-12T07:20:47.729Z,63.84
2022-10-12T07:21:20.921Z,63.82
2022-10-12T07:21:53.991Z,63.91
2022-10-12T07:22:27.390Z,64.01
2022-10-12T07:23:00.705Z,64.03
2022-10-12T07:23:35.201Z,64.05
2022-10-12T07:24:12.885Z,64.00
2022-10-12T07:24:45.994Z,64.00
2022-10-12T07:25:19.174Z,64.10
2022-10-12T07:25:53.023Z,64.23
2022-10-12T07:26:26.408Z,64.46
2022-10-12T07:26:59.499Z,64.47
2022-10-12T07:27:32.529Z,64.44
2022-10-12T07:28:06.780Z,64.26
2022-10-12T07:28:39.901Z,64.12
2022-10-12T07:29:13.066Z,64.02
2022-10-12T07:29:46.260Z,63.52
2022-10-12T07:30:19.593Z,62.82
2022-10-12T07:30:52.955Z,62.10
2022-10-12T07:31:26.129Z,61.43
2022-10-12T07:32:00.128Z,61.05
2022-10-12T07:32:33.227Z,60.97
2022-10-12T07:33:06.285Z,61.18
2022-10-12T07:33:39.564Z,61.33
2022-10-12T07:34:12.695Z,61.20
2022-10-12T07:34:45.838Z,61.11
2022-10-12T07:35:19.060Z,60.94
2022-10-12T07:36:13.321Z,60.63
2022-10-12T07:36:59.226Z,60.57
2022-10-12T07:37:32.910Z,59.31
2022-10-12T07:38:06.947Z,58.42